createdAt,value
2017-08-12T00:01:16.541Z,16.43
2017-08-12T00:03:44.907Z,16.70
2017-08-12T00:06:13.313Z,13.93
2017-08-12T00:08:41.697Z,13.43
2017-08-12T00:11:10.041Z,11.90
2017-08-12T00:13:38.394Z,11.10
2017-08-12T00:16:06.750Z,17.33
2017-08-12T00:18:35.121Z,12.47
2017-08-12T00:21:03.483Z,12.93
2017-08-12T00:23:32.415Z,11.53
2017-08-12T00:26:00.797Z,14.07
2017-08-12T00:28:29.145Z,11.83
2017-08-12T00:30:57.616Z,9.63
2017-08-12T00:33:25.958Z,13.00
2017-08-12T00:35:54.736Z,12.00
2017-08-12T00:38:23.102Z,10.77
2017-08-12T00:40:51.711Z,15.37
2017-08-12T00:43:20.837Z,16.23
2017-08-12T00:45:49.204Z,9.47
2017-08-12T00:48:18.240Z,15.87
2017-08-12T00:50:46.299Z,11.47
2017-08-12T00:53:14.660Z,16.07
2017-08-12T00:55:43.219Z,14.87
2017-08-12T00:58:11.579Z,14.23
2017-08-12T01:00:39.977Z,16.03
2017-08-12T01:03:08.342Z,16.07
2017-08-12T01:05:36.703Z,15.07
2017-08-12T01:08:05.088Z,15.00
2017-08-12T01:10:33.455Z,14.53
2017-08-12T01:13:01.915Z,10.10
2017-08-12T01:15:30.288Z,17.63
2017-08-12T01:17:58.653Z,12.03
2017-08-12T01:20:27.028Z,13.27
2017-08-12T01:22:55.400Z,14.43
2017-08-12T01:25:23.762Z,11.93
2017-08-12T01:27:52.152Z,10.07
2017-08-12T01:30:20.686Z,13.27
2017-08-12T01:32:49.036Z,9.50
2017-08-12T01:35:18.136Z,13.20
2017-08-12T01:37:46.740Z,12.73
2017-08-12T01:40:15.241Z,12.60
2017-08-12T01:42:43.605Z,10.20
2017-08-12T01:45:12.274Z,9.20
2017-08-12T01:47:41.383Z,10.20
2017-08-12T01:50:09.966Z,9.70
2017-08-12T01:52:38.317Z,9.70
2017-08-12T01:55:06.708Z,10.70
2017-08-12T01:57:35.135Z,10.07
2017-08-12T02:00:03.486Z,10.87
2017-08-12T02:02:31.844Z,11.33
2017-08-12T02:05:00.255Z,8.90
2017-08-12T02:07:28.605Z,11.10
2017-08-12T02:09:57.032Z,8.90
2017-08-12T02:12:25.912Z,7.43
2017-08-12T02:14:55.090Z,11.50
2017-08-12T02:17:24.004Z,10.03
2017-08-12T02:19:52.360Z,9.93
2017-08-12T02:22:21.055Z,9.20
2017-08-12T02:24:49.440Z,10.37
2017-08-12T02:27:18.038Z,12.30
2017-08-12T02:29:47.344Z,9.27
2017-08-12T02:32:16.178Z,9.83
2017-08-12T02:34:45.484Z,12.90
2017-08-12T02:37:13.866Z,15.80
2017-08-12T02:39:42.542Z,10.37
2017-08-12T02:42:11.233Z,13.47
2017-08-12T02:44:39.894Z,20.63
2017-08-12T02:47:08.253Z,10.20
2017-08-12T02:49:36.804Z,14.53
2017-08-12T02:52:05.180Z,14.37
2017-08-12T02:54:34.471Z,10.33
2017-08-12T02:57:02.852Z,14.80
2017-08-12T02:59:31.211Z,8.73
2017-08-12T03:01:59.763Z,9.87
2017-08-12T03:04:28.133Z,9.40
2017-08-12T03:06:56.478Z,11.00
2017-08-12T03:09:24.833Z,10.80
2017-08-12T03:11:53.181Z,11.20
2017-08-12T03:14:21.569Z,7.13
2017-08-12T03:16:49.920Z,10.03
2017-08-12T03:19:18.275Z,8.47
2017-08-12T03:21:46.653Z,13.03
2017-08-12T03:24:15.028Z,12.53
2017-08-12T03:26:43.383Z,11.13
2017-08-12T03:29:12.301Z,10.43
2017-08-12T03:31:40.650Z,7.90
2017-08-12T03:34:09.228Z,12.00
2017-08-12T03:36:37.578Z,10.63
2017-08-12T03:39:05.590Z,12.27
2017-08-12T03:41:34.499Z,13.17
2017-08-12T03:44:02.864Z,16.10
2017-08-12T03:46:31.218Z,12.83
2017-08-12T03:48:59.619Z,11.23
2017-08-12T03:51:28.018Z,11.40
2017-08-12T03:53:56.368Z,15.93
2017-08-12T03:56:25.719Z,11.97
2017-08-12T03:58:54.075Z,18.53
2017-08-12T04:01:23.065Z,10.23
2017-08-12T04:03:51.424Z,12.13
2017-08-12T04:06:19.785Z,12.70
2017-08-12T04:08:48.138Z,12.83
2017-08-12T04:11:16.507Z,16.70
2017-08-12T04:13:45.065Z,13.37
2017-08-12T04:16:13.827Z,16.33
2017-08-12T04:18:42.190Z,16.03
2017-08-12T04:21:10.571Z,16.23
2017-08-12T04:23:38.914Z,14.43
2017-08-12T04:26:07.279Z,11.20
2017-08-12T04:28:37.178Z,14.67
2017-08-12T04:31:05.558Z,21.50
2017-08-12T04:33:33.919Z,13.30
2017-08-12T04:36:02.296Z,20.43
2017-08-12T04:38:30.644Z,16.70
2017-08-12T04:40:58.995Z,15.43
2017-08-12T04:43:27.419Z,21.17
2017-08-12T04:45:55.761Z,14.83
2017-08-12T04:48:25.079Z,18.07
2017-08-12T04:50:53.430Z,14.43
2017-08-12T04:53:22.569Z,20.53
2017-08-12T04:55:51.619Z,13.23
2017-08-12T04:58:20.006Z,12.40
2017-08-12T05:00:48.357Z,20.27
2017-08-12T05:03:17.503Z,13.07
2017-08-12T05:05:45.936Z,17.93
2017-08-12T05:08:14.332Z,15.43
2017-08-12T05:10:42.700Z,21.70
2017-08-12T05:13:11.078Z,16.83
2017-08-12T05:15:39.478Z,13.53
2017-08-12T05:18:07.854Z,19.13
2017-08-12T05:20:36.240Z,22.53
2017-08-12T05:23:04.593Z,19.03
2017-08-12T05:25:32.958Z,18.40
2017-08-12T05:28:01.358Z,23.17
2017-08-12T05:30:29.706Z,20.57
2017-08-12T05:32:58.086Z,23.83
2017-08-12T05:35:29.001Z,23.17
2017-08-12T05:37:57.528Z,31.03
2017-08-12T05:40:25.870Z,30.87
2017-08-12T05:42:55.007Z,29.07
2017-08-12T05:45:23.369Z,35.70
2017-08-12T05:47:51.732Z,40.73
2017-08-12T05:50:20.182Z,35.30
2017-08-12T05:52:48.530Z,32.30
2017-08-12T05:55:16.903Z,21.53
2017-08-12T05:57:45.253Z,25.40
2017-08-12T06:00:13.626Z,25.97
2017-08-12T06:02:42.006Z,22.67
2017-08-12T06:05:10.379Z,23.87
2017-08-12T06:07:38.738Z,29.37
2017-08-12T06:10:07.205Z,25.27
2017-08-12T06:12:35.578Z,27.77
2017-08-12T06:15:04.313Z,27.87
2017-08-12T06:17:32.679Z,32.50
2017-08-12T06:20:01.246Z,33.40
2017-08-12T06:22:29.607Z,28.50
2017-08-12T06:24:58.000Z,33.10
2017-08-12T06:27:26.682Z,30.07
2017-08-12T06:29:55.059Z,24.80
2017-08-12T06:32:23.612Z,24.13
2017-08-12T06:34:52.285Z,28.00
2017-08-12T06:37:20.641Z,26.57
2017-08-12T06:39:49.027Z,25.30
2017-08-12T06:42:17.518Z,28.80
2017-08-12T06:44:46.850Z,35.77
2017-08-12T06:47:15.194Z,27.37
2017-08-12T06:49:44.500Z,31.50
2017-08-12T06:52:13.201Z,28.10
2017-08-12T06:54:41.647Z,22.90
2017-08-12T06:57:10.296Z,28.43
2017-08-12T06:59:38.705Z,26.23
2017-08-12T07:02:07.080Z,20.53
2017-08-12T07:04:35.254Z,20.90
2017-08-12T07:07:03.609Z,20.80
2017-08-12T07:09:31.974Z,20.40
2017-08-12T07:12:00.352Z,13.70
2017-08-12T07:14:28.767Z,17.50
2017-08-12T07:16:57.273Z,18.20
2017-08-12T07:19:25.647Z,17.47
2017-08-12T07:21:54.025Z,23.13
2017-08-12T07:24:22.375Z,16.93
2017-08-12T07:26:51.700Z,26.63
2017-08-12T07:29:20.719Z,14.83
2017-08-12T07:31:49.118Z,15.90
2017-08-12T07:34:17.497Z,22.77
2017-08-12T07:36:45.865Z,12.70
2017-08-12T07:39:14.233Z,14.03
2017-08-12T07:41:42.607Z,11.93
2017-08-12T07:44:11.147Z,17.43
2017-08-12T07:46:39.510Z,14.33
2017-08-12T07:49:07.899Z,12.23
2017-08-12T07:51:36.255Z,12.20
2017-08-12T07:54:04.753Z,15.30
2017-08-12T07:56:33.098Z,11.97
2017-08-12T07:59:02.226Z,15.03
2017-08-12T08:01:30.807Z,17.87
2017-08-12T08:03:59.250Z,11.90
2017-08-12T08:06:27.660Z,13.10
2017-08-12T08:08:56.046Z,12.40
2017-08-12T08:11:24.403Z,14.90
2017-08-12T08:13:52.776Z,11.23
2017-08-12T08:16:21.137Z,12.27
2017-08-12T08:18:49.597Z,10.87
2017-08-12T08:21:18.127Z,12.70
2017-08-12T08:23:47.152Z,9.70
2017-08-12T08:26:16.616Z,9.30
2017-08-12T08:28:44.972Z,11.90
2017-08-12T08:31:13.324Z,12.37
2017-08-12T08:33:41.683Z,9.80
2017-08-12T08:36:10.043Z,12.00
2017-08-12T08:38:38.407Z,9.23
2017-08-12T08:41:06.972Z,10.23
2017-08-12T08:43:35.345Z,9.10
2017-08-12T08:46:03.693Z,9.27
2017-08-12T08:48:32.081Z,8.53
2017-08-12T08:51:00.437Z,8.00
2017-08-12T08:53:29.565Z,10.10
2017-08-12T08:55:57.925Z,8.17
2017-08-12T08:58:26.315Z,7.73
2017-08-12T09:00:54.667Z,8.33
2017-08-12T09:03:23.011Z,7.70
2017-08-12T09:05:51.367Z,7.20
2017-08-12T09:08:19.735Z,7.23
2017-08-12T09:10:48.401Z,5.60
2017-08-12T09:13:16.776Z,5.50
2017-08-12T09:15:45.152Z,6.40
2017-08-12T09:18:13.547Z,6.00
2017-08-12T09:20:41.914Z,6.97
2017-08-12T09:23:10.279Z,5.63
2017-08-12T09:25:38.877Z,4.37
2017-08-12T09:28:07.340Z,4.53
2017-08-12T09:30:35.697Z,4.53
2017-08-12T09:33:04.193Z,4.67
2017-08-12T09:35:32.541Z,5.23
2017-08-12T09:38:00.913Z,5.07
2017-08-12T09:40:29.394Z,4.80
2017-08-12T09:42:57.771Z,4.67
2017-08-12T09:45:26.127Z,4.27
2017-08-12T09:47:54.479Z,3.50
2017-08-12T09:50:22.833Z,3.47
2017-08-12T09:52:51.216Z,3.77
2017-08-12T09:55:19.782Z,3.13
2017-08-12T09:57:48.135Z,3.47
2017-08-12T10:00:16.840Z,3.00
2017-08-12T10:02:45.221Z,2.90
2017-08-12T10:05:13.572Z,2.73
2017-08-12T10:07:42.162Z,2.73
2017-08-12T10:10:10.957Z,3.17
2017-08-12T10:12:39.390Z,2.90
2017-08-12T10:15:07.748Z,4.10
2017-08-12T10:17:36.394Z,2.63
2017-08-12T10:20:04.984Z,2.27
2017-08-12T10:22:33.322Z,4.27
2017-08-12T10:25:01.673Z,3.10
2017-08-12T10:27:30.026Z,3.50
2017-08-12T10:29:58.581Z,3.40
2017-08-12T10:32:26.935Z,3.50
2017-08-12T10:34:55.522Z,3.40
2017-08-12T10:37:24.936Z,4.23
2017-08-12T10:39:53.321Z,4.00
2017-08-12T10:42:21.664Z,4.57
2017-08-12T10:44:50.014Z,4.60
2017-08-12T10:47:18.703Z,4.53
2017-08-12T10:49:47.080Z,4.77
2017-08-12T10:52:16.198Z,4.93
2017-08-12T10:54:44.544Z,5.07
2017-08-12T10:57:12.902Z,5.40
2017-08-12T10:59:41.263Z,5.07
2017-08-12T11:02:09.625Z,5.23
2017-08-12T11:04:37.984Z,4.90
2017-08-12T11:07:06.674Z,5.20
2017-08-12T11:09:36.202Z,6.33
2017-08-12T11:12:04.578Z,5.50
2017-08-12T11:14:33.630Z,5.97
2017-08-12T11:17:02.760Z,5.97
2017-08-12T11:19:31.324Z,5.20
2017-08-12T11:22:00.722Z,5.33
2017-08-12T11:24:29.085Z,5.87
2017-08-12T11:26:58.764Z,5.63
2017-08-12T11:29:27.132Z,6.87
2017-08-12T11:31:55.670Z,7.10
2017-08-12T11:34:25.061Z,6.57
2017-08-12T11:36:53.642Z,6.90
2017-08-12T11:39:25.855Z,6.80
2017-08-12T11:41:54.203Z,6.50
2017-08-12T11:44:22.574Z,6.67
2017-08-12T11:46:50.934Z,6.40
2017-08-12T11:49:19.288Z,5.93
2017-08-12T11:51:47.646Z,7.13
2017-08-12T11:54:16.041Z,6.77
2017-08-12T11:56:44.424Z,6.00
2017-08-12T11:59:12.837Z,5.53
2017-08-12T12:01:41.216Z,6.03
2017-08-12T12:04:09.572Z,6.07
2017-08-12T12:06:38.145Z,5.20
2017-08-12T12:09:06.664Z,5.40
2017-08-12T12:11:35.018Z,5.50
2017-08-12T12:14:03.578Z,5.70
2017-08-12T12:16:31.943Z,5.37
2017-08-12T12:19:00.294Z,5.43
2017-08-12T12:21:29.613Z,4.83
2017-08-12T12:23:58.005Z,4.80
2017-08-12T12:26:26.687Z,4.20
2017-08-12T12:28:55.029Z,4.60
2017-08-12T12:31:24.220Z,4.90
2017-08-12T12:33:52.727Z,4.77
2017-08-12T12:36:21.402Z,4.43
2017-08-12T12:38:49.775Z,4.87
2017-08-12T12:41:19.090Z,4.97
2017-08-12T12:43:47.467Z,4.47
2017-08-12T12:46:15.850Z,4.80
2017-08-12T12:48:44.216Z,4.83
2017-08-12T12:51:12.569Z,5.70
2017-08-12T12:53:40.934Z,4.57
2017-08-12T12:56:09.299Z,5.30
2017-08-12T12:58:38.177Z,5.37
2017-08-12T13:01:06.539Z,4.93
2017-08-12T13:03:34.894Z,10.00
2017-08-12T13:06:03.245Z,5.20
2017-08-12T13:08:31.607Z,7.53
2017-08-12T13:11:00.718Z,5.23
2017-08-12T13:13:29.077Z,4.60
2017-08-12T13:15:58.056Z,4.30
2017-08-12T13:18:27.390Z,4.10
2017-08-12T13:20:55.794Z,4.87
2017-08-12T13:23:24.148Z,19.13
2017-08-12T13:25:52.626Z,4.73
2017-08-12T13:28:20.976Z,4.27
2017-08-12T13:30:49.333Z,4.67
2017-08-12T13:33:18.722Z,4.90
2017-08-12T13:35:47.100Z,4.90
2017-08-12T13:38:16.651Z,5.40
2017-08-12T13:40:45.002Z,5.20
2017-08-12T13:43:13.197Z,5.57
2017-08-12T13:45:41.550Z,6.90
2017-08-12T13:48:10.154Z,4.90
2017-08-12T13:50:38.500Z,5.20
2017-08-12T13:53:07.630Z,5.17
2017-08-12T13:55:35.993Z,5.53
2017-08-12T13:58:04.415Z,5.73
2017-08-12T14:00:32.763Z,5.37
2017-08-12T14:03:01.134Z,5.33
2017-08-12T14:05:29.508Z,5.10
2017-08-12T14:07:57.878Z,5.40
2017-08-12T14:10:26.223Z,4.60
2017-08-12T14:12:54.631Z,4.83
2017-08-12T14:15:22.993Z,5.07
2017-08-12T14:17:51.431Z,4.63
2017-08-12T14:20:20.380Z,5.20
2017-08-12T14:22:48.742Z,5.47
2017-08-12T14:25:18.164Z,5.50
2017-08-12T14:27:46.519Z,5.60
2017-08-12T14:30:14.882Z,5.23
2017-08-12T14:32:43.455Z,5.20
2017-08-12T14:35:12.571Z,5.07
2017-08-12T14:37:40.926Z,9.20
2017-08-12T14:40:09.326Z,4.70
2017-08-12T14:42:37.682Z,4.77
2017-08-12T14:45:07.006Z,4.00
2017-08-12T14:47:35.371Z,4.03
2017-08-12T14:50:03.723Z,3.30
2017-08-12T14:52:32.085Z,4.83
2017-08-12T14:55:00.435Z,3.93
2017-08-12T14:57:28.790Z,3.90
2017-08-12T14:59:57.257Z,3.60
2017-08-12T15:02:25.839Z,3.50
2017-08-12T15:04:54.185Z,3.70
2017-08-12T15:07:22.546Z,4.33
2017-08-12T15:09:51.678Z,3.23
2017-08-12T15:12:20.264Z,4.20
2017-08-12T15:14:48.747Z,4.87
2017-08-12T15:17:17.318Z,5.07
2017-08-12T15:19:45.682Z,4.40
2017-08-12T15:22:14.563Z,5.17
2017-08-12T15:24:42.571Z,5.03
2017-08-12T15:27:11.777Z,4.97
2017-08-12T15:32:09.650Z,4.57
2017-08-12T15:34:38.008Z,5.23
2017-08-12T15:37:06.456Z,7.87
2017-08-12T15:39:34.852Z,7.30
2017-08-12T15:42:03.027Z,6.57
2017-08-12T15:44:31.611Z,6.93
2017-08-12T15:47:00.288Z,6.70
2017-08-12T15:49:30.636Z,6.70
2017-08-12T15:51:59.187Z,6.33
2017-08-12T15:54:27.670Z,7.27
2017-08-12T15:56:56.043Z,5.97
2017-08-12T15:59:24.530Z,6.50
2017-08-12T16:01:52.901Z,6.57
2017-08-12T16:04:21.380Z,6.63
2017-08-12T16:06:49.752Z,7.10
2017-08-12T16:09:18.326Z,6.50
2017-08-12T16:11:46.709Z,6.47
2017-08-12T16:14:15.083Z,9.03
2017-08-12T16:16:43.623Z,7.97
2017-08-12T16:19:11.979Z,7.03
2017-08-12T16:21:40.825Z,6.57
2017-08-12T16:24:09.301Z,7.03
2017-08-12T16:26:37.673Z,7.73
2017-08-12T16:29:06.040Z,7.50
2017-08-12T16:31:34.415Z,7.00
2017-08-12T16:34:02.809Z,7.40
2017-08-12T16:36:31.229Z,7.77
2017-08-12T16:38:59.589Z,8.90
2017-08-12T16:41:27.961Z,7.87
2017-08-12T16:43:56.339Z,8.33
2017-08-12T16:46:24.501Z,8.50
2017-08-12T16:48:52.869Z,8.63
2017-08-12T16:51:22.039Z,9.87
2017-08-12T16:53:50.428Z,8.90
2017-08-12T16:56:18.869Z,7.47
2017-08-12T16:58:47.521Z,7.47
2017-08-12T17:01:16.593Z,6.80
2017-08-12T17:03:44.956Z,7.53
2017-08-12T17:06:13.320Z,6.70
2017-08-12T17:08:41.677Z,7.30
2017-08-12T17:11:10.030Z,6.80
2017-08-12T17:13:38.386Z,7.13
2017-08-12T17:16:06.747Z,7.23
2017-08-12T17:18:35.127Z,7.17
2017-08-12T17:21:03.494Z,7.40
2017-08-12T17:23:31.845Z,7.93
2017-08-12T17:26:00.214Z,8.40
2017-08-12T17:28:28.715Z,7.80
2017-08-12T17:30:57.603Z,8.23
2017-08-12T17:33:25.979Z,8.77
2017-08-12T17:35:54.334Z,6.70
2017-08-12T17:38:23.653Z,12.63
2017-08-12T17:40:52.083Z,12.10
2017-08-12T17:43:20.438Z,10.60
2017-08-12T17:45:48.804Z,12.43
2017-08-12T17:48:17.161Z,12.90
2017-08-12T17:50:45.692Z,11.37
2017-08-12T17:53:14.058Z,10.90
2017-08-12T17:55:42.593Z,10.33
2017-08-12T17:58:10.964Z,11.07
2017-08-12T18:00:39.395Z,10.70
2017-08-12T18:03:07.746Z,12.13
2017-08-12T18:05:36.101Z,9.17
2017-08-12T18:08:04.468Z,8.20
2017-08-12T18:10:32.908Z,8.53
2017-08-12T18:13:01.322Z,8.53
2017-08-12T18:15:29.691Z,7.90
2017-08-12T18:17:58.075Z,8.47
2017-08-12T18:20:26.655Z,10.30
2017-08-12T18:22:55.108Z,7.23
2017-08-12T18:25:24.226Z,7.50
2017-08-12T18:27:52.726Z,7.70
2017-08-12T18:30:21.093Z,8.83
2017-08-12T18:32:49.795Z,9.57
2017-08-12T18:35:18.164Z,10.33
2017-08-12T18:37:46.683Z,10.50
2017-08-12T18:40:15.058Z,12.77
2017-08-12T18:42:43.438Z,13.83
2017-08-12T18:45:11.801Z,12.17
2017-08-12T18:47:40.158Z,10.30
2017-08-12T18:50:08.514Z,9.20
2017-08-12T18:52:36.864Z,7.67
2017-08-12T18:55:06.154Z,5.83
2017-08-12T18:57:34.502Z,5.93
2017-08-12T19:00:02.879Z,6.67
2017-08-12T19:02:31.624Z,6.23
2017-08-12T19:05:00.891Z,6.80
2017-08-12T19:07:29.378Z,6.60
2017-08-12T19:09:57.905Z,6.77
2017-08-12T19:12:27.271Z,6.33
2017-08-12T19:14:55.740Z,6.77
2017-08-12T19:17:24.114Z,6.17
2017-08-12T19:19:52.489Z,6.77
2017-08-12T19:22:20.851Z,5.50
2017-08-12T19:24:49.225Z,5.17
2017-08-12T19:27:17.685Z,5.97
2017-08-12T19:29:46.052Z,5.67
2017-08-12T19:32:14.416Z,4.70
2017-08-12T19:34:42.785Z,6.03
2017-08-12T19:37:11.360Z,6.67
2017-08-12T19:39:39.722Z,6.27
2017-08-12T19:42:08.190Z,4.27
2017-08-12T19:44:36.867Z,4.83
2017-08-12T19:47:05.548Z,4.37
2017-08-12T19:49:34.233Z,4.57
2017-08-12T19:52:02.604Z,5.77
2017-08-12T19:54:30.984Z,6.17
2017-08-12T19:56:59.342Z,6.90
2017-08-12T19:59:27.702Z,7.80
2017-08-12T20:01:56.841Z,12.77
2017-08-12T20:04:26.009Z,21.17
2017-08-12T20:06:55.028Z,18.70
2017-08-12T20:09:23.446Z,21.90
2017-08-12T20:11:51.825Z,21.57
2017-08-12T20:14:20.186Z,28.13
2017-08-12T20:16:48.551Z,29.43
2017-08-12T20:19:18.437Z,30.23
2017-08-12T20:21:47.463Z,29.50
2017-08-12T20:24:15.848Z,34.03
2017-08-12T20:26:44.210Z,38.90
2017-08-12T20:29:12.573Z,36.17
2017-08-12T20:31:40.929Z,21.17
2017-08-12T20:34:09.709Z,15.10
2017-08-12T20:36:38.286Z,6.60
2017-08-12T20:39:06.629Z,3.80
2017-08-12T20:41:35.764Z,3.50
2017-08-12T20:44:04.118Z,2.70
2017-08-12T20:46:32.468Z,3.10
2017-08-12T20:49:01.040Z,3.43
2017-08-12T20:51:29.399Z,4.37
2017-08-12T20:53:57.753Z,9.67
2017-08-12T20:56:26.185Z,14.63
2017-08-12T20:58:55.340Z,16.27
2017-08-12T21:01:23.723Z,16.27
2017-08-12T21:03:52.885Z,12.87
2017-08-12T21:06:21.261Z,14.53
2017-08-12T21:08:49.636Z,15.40
2017-08-12T21:11:19.634Z,8.47
2017-08-12T21:13:49.118Z,6.23
2017-08-12T21:16:18.787Z,4.93
2017-08-12T21:18:46.790Z,3.93
2017-08-12T21:21:15.918Z,3.70
2017-08-12T21:23:44.291Z,2.77
2017-08-12T21:26:12.648Z,2.57
2017-08-12T21:28:41.261Z,2.30
2017-08-12T21:31:09.933Z,2.60
2017-08-12T21:33:38.312Z,2.07
2017-08-12T21:36:06.681Z,2.00
2017-08-12T21:38:35.021Z,2.10
2017-08-12T21:41:04.150Z,1.90
2017-08-12T21:43:32.503Z,2.33
2017-08-12T21:46:00.851Z,2.10
2017-08-12T21:48:29.206Z,2.47
2017-08-12T21:50:57.662Z,2.70
2017-08-12T21:53:26.009Z,1.90
2017-08-12T21:55:54.377Z,2.97
2017-08-12T21:58:22.730Z,2.30
2017-08-12T22:00:51.091Z,2.30
2017-08-12T22:03:19.458Z,2.70
2017-08-12T22:05:47.816Z,2.33
2017-08-12T22:08:16.186Z,2.20
2017-08-12T22:10:44.566Z,2.37
2017-08-12T22:13:13.006Z,1.80
2017-08-12T22:15:41.368Z,2.47
2017-08-12T22:18:09.738Z,2.10
2017-08-12T22:20:38.511Z,2.13
2017-08-12T22:23:06.871Z,2.40
2017-08-12T22:25:35.257Z,2.90
2017-08-12T22:28:03.617Z,2.20
2017-08-12T22:30:31.976Z,2.30
2017-08-12T22:33:00.337Z,2.13
2017-08-12T22:35:28.690Z,2.07
2017-08-12T22:37:57.056Z,2.20
2017-08-12T22:40:25.418Z,2.33
2017-08-12T22:42:53.776Z,1.67
2017-08-12T22:45:22.127Z,2.10
2017-08-12T22:47:50.740Z,3.50
2017-08-12T22:50:19.106Z,4.10
2017-08-12T22:52:48.393Z,4.77
2017-08-12T22:55:16.785Z,5.13
2017-08-12T22:57:45.142Z,5.40
2017-08-12T23:00:13.515Z,4.77
2017-08-12T23:02:41.870Z,4.90
2017-08-12T23:05:10.217Z,3.40
2017-08-12T23:07:39.362Z,3.50
2017-08-12T23:10:07.728Z,3.03
2017-08-12T23:12:36.075Z,2.97
2017-08-12T23:15:04.523Z,2.60
2017-08-12T23:17:32.883Z,3.50
2017-08-12T23:20:01.242Z,2.37
2017-08-12T23:22:29.595Z,2.70
2017-08-12T23:24:57.941Z,2.47
2017-08-12T23:27:26.320Z,3.50
2017-08-12T23:29:54.686Z,2.87
2017-08-12T23:32:23.039Z,2.30
2017-08-12T23:34:51.462Z,2.60
2017-08-12T23:37:19.819Z,2.50
2017-08-12T23:39:48.202Z,2.30
2017-08-12T23:42:16.542Z,3.90
2017-08-12T23:44:44.898Z,3.17
2017-08-12T23:47:13.321Z,2.70
2017-08-12T23:49:41.669Z,2.80
2017-08-12T23:52:10.035Z,3.10
2017-08-12T23:54:38.452Z,3.63
2017-08-12T23:57:06.810Z,3.13
2017-08-12T23:59:35.157Z,3.47
